Seven Seas Mariner — C6VV8 — position and weather

sailwx.info

Track history (hours):
 
Tides and Currents Weather Stations Pressure Air Temp Water Temp Dewpoint Dewpoint Depression Visibility Wind Speed Wind Dir Waves Ship Positions

Seven Seas Mariner

Last reported at 2019-Jan-22 10:30 UTC. Time now 2019-Jan-23 18:25 UTC.
Position S 26°41' E 153°13'.

Length 216 m; draft 7.2 m.

Type: Passenger vessel. MMSI: 311622000.

Date/timePositionNaut miles runAvg speedWind from/ knotsBaromVisibWave heightAir tempDewpointWater temp
2019-Jan-22 10:30S 26°41' E 153°13'712.4
2019-Jan-22 09:57S 26°47' E 153°11'613.9
2019-Jan-22 09:30S 26°53' E 153°10'917.3
2019-Jan-22 09:00S 27°01' E 153°15'816.6
2019-Jan-22 08:30S 27°07' E 153°21'816.9
2019-Jan-22 08:00S 27°15' E 153°18'815.6
2019-Jan-22 07:31S 27°21' E 153°11'3 5.3
2019-Jan-22 07:00S 27°23' E 153°10'0 0.0
2019-Jan-22 06:30S 27°23' E 153°10'0 0.0
2019-Jan-22 06:00S 27°23' E 153°10'0 0.0
2019-Jan-22 05:30S 27°23' E 153°10'0 0.0
2019-Jan-22 05:00S 27°23' E 153°10'0 0.0
2019-Jan-22 04:30S 27°23' E 153°10'0 0.0
2019-Jan-22 04:00S 27°23' E 153°10'0 0.0
2019-Jan-22 03:00S 27°23' E 153°10'0 0.0
2019-Jan-22 02:30S 27°23' E 153°10'0 0.0
2019-Jan-22 02:00S 27°23' E 153°10'0 0.0
2019-Jan-22 01:30S 27°23' E 153°10'0 0.0
2019-Jan-22 01:00S 27°23' E 153°10'0 0.0
2019-Jan-22 00:30S 27°23' E 153°10'0 0.0
2019-Jan-22 00:00S 27°23' E 153°10'0 0.0
2019-Jan-21 23:30S 27°23' E 153°10'0 0.0
2019-Jan-21 23:00S 27°23' E 153°10'0 0.0
2019-Jan-21 22:27S 27°23' E 153°10'0 0.0
2019-Jan-21 21:57S 27°23' E 153°10'0 0.0
2019-Jan-21 21:30S 27°23' E 153°10'0 0.0
2019-Jan-21 21:00S 27°23' E 153°10'0 0.0
2019-Jan-21 20:30S 27°23' E 153°10'0 0.9
2019-Jan-21 20:00S 27°22' E 153°10'5 9.2
2019-Jan-21 19:30S 27°19' E 153°13'815.4
2019-Jan-21 19:00S 27°14' E 153°20'815.5
2019-Jan-21 18:30S 27°07' E 153°20'815.5
2019-Jan-21 18:00S 27°00' E 153°15'816.7
2019-Jan-21 17:30S 26°53' E 153°10'712.9
2019-Jan-21 16:57S 26°46' E 153°12'4 7.6
2019-Jan-21 16:28S 26°46' E 153°16'613.7
2019-Jan-21 16:00S 26°48' E 153°22'612.3
2019-Jan-21 15:30S 26°51' E 153°28'611.5
2019-Jan-21 15:00S 26°54' E 153°34'611.9
2019-Jan-21 14:30S 26°59' E 153°38'612.4
2019-Jan-21 14:00S 27°04' E 153°42'612.3
2019-Jan-21 13:30S 27°09' E 153°45'713.0
2019-Jan-21 13:00S 27°16' E 153°46'814.0
2019-Jan-21 12:27S 27°23' E 153°48'714.4
2019-Jan-21 12:00S 27°30' E 153°49'715.2
2019-Jan-21 11:30S 27°37' E 153°50'915.3
2019-Jan-21 10:57S 27°46' E 153°50'24814.0
2019-Jan-20 17:16S 31°51' E 153°04'415.4
2019-Jan-20 17:00S 31°55' E 153°03'3815.4
2019-Jan-20 14:33S 32°31' E 152°49'315.2
2019-Jan-20 14:21S 32°33' E 152°48'514.8
2019-Jan-20 14:00S 32°38' E 152°44'815.2
2019-Jan-20 13:30S 32°43' E 152°38'815.0
2019-Jan-20 13:00S 32°49' E 152°32'714.9
2019-Jan-20 12:30S 32°54' E 152°26'714.7
2019-Jan-20 12:00S 32°59' E 152°20'815.6
2019-Jan-20 11:30S 33°05' E 152°13'916.9
2019-Jan-20 11:00S 33°11' E 152°06'2917.7
2019-Jan-20 09:23S 33°32' E 151°42'718.0
2019-Jan-20 09:00S 33°37' E 151°37'918.2
2019-Jan-20 08:30S 33°43' E 151°29'917.9
2019-Jan-20 08:00S 33°50' E 151°22'510.6
2019-Jan-20 07:30S 33°51' E 151°15'3 6.3
2019-Jan-20 06:59S 33°52' E 151°12'0 0.4
2019-Jan-20 06:28S 33°52' E 151°11'0 0.0
2019-Jan-20 05:58S 33°52' E 151°11'0 0.0
2019-Jan-20 05:28S 33°52' E 151°11'0 0.0
2019-Jan-20 04:52S 33°52' E 151°11'0 0.0
2019-Jan-20 04:25S 33°52' E 151°11'0 0.0
2019-Jan-20 03:58S 33°52' E 151°11'0 0.0
2019-Jan-20 03:28S 33°52' E 151°11'0 0.0
2019-Jan-20 02:58S 33°52' E 151°11'0 0.0
2019-Jan-20 02:28S 33°52' E 151°11'0 0.0
2019-Jan-20 01:58S 33°52' E 151°11'0 0.0
2019-Jan-20 01:28S 33°52' E 151°11'0 0.0
2019-Jan-20 00:58S 33°52' E 151°11'0 0.0
2019-Jan-20 00:28S 33°52' E 151°11'0 0.0
2019-Jan-19 23:58S 33°52' E 151°11'0 0.0
2019-Jan-19 23:28S 33°52' E 151°11'0 0.0
2019-Jan-19 22:58S 33°52' E 151°11'0 0.0
2019-Jan-19 22:28S 33°52' E 151°11'0 0.0
2019-Jan-19 21:58S 33°52' E 151°11'0 0.0
2019-Jan-19 21:28S 33°52' E 151°11'0 0.0
2019-Jan-19 20:58S 33°52' E 151°11'0 0.0
2019-Jan-19 20:25S 33°52' E 151°11'0 0.0
2019-Jan-19 19:58S 33°52' E 151°11'0 0.0
2019-Jan-19 19:28S 33°52' E 151°11'1 1.0
2019-Jan-19 19:00S 33°52' E 151°12'2 5.1
2019-Jan-19 18:30S 33°51' E 151°15'5 9.8
2019-Jan-19 18:00S 33°51' E 151°21'510.3
2019-Jan-19 17:30S 33°55' E 151°24'612.4
2019-Jan-19 17:00S 34°01' E 151°25'611.7
2019-Jan-19 16:30S 34°07' E 151°25'712.1
2019-Jan-19 15:57S 34°14' E 151°24'612.4
2019-Jan-19 15:29S 34°19' E 151°23'42815.1
2019-Jan-18 11:11S 40°15' E 146°23'315.8
2019-Jan-18 10:58S 40°18' E 146°21'715.8
2019-Jan-18 10:30S 40°25' E 146°17'1015.8
2019-Jan-18 09:52S 40°34' E 146°12'615.9
2019-Jan-18 09:30S 40°39' E 146°10'815.8
2019-Jan-18 09:00S 40°47' E 146°06'815.6
2019-Jan-18 08:30S 40°54' E 146°02'815.7
2019-Jan-18 08:00S 41°01' E 145°58'3 5.8
2019-Jan-18 07:30S 41°03' E 145°55'0 0.0
2019-Jan-18 07:00S 41°03' E 145°55'0 0.0
2019-Jan-18 06:30S 41°03' E 145°55'0 0.0
2019-Jan-18 06:00S 41°03' E 145°55'0 0.0
2019-Jan-18 05:24S 41°03' E 145°55'0 0.0
2019-Jan-18 04:48S 41°03' E 145°55'0 0.0
2019-Jan-18 04:24S 41°03' E 145°55'0 0.0
2019-Jan-18 03:54S 41°03' E 145°55'0 0.0
2019-Jan-18 02:48S 41°03' E 145°55'0 0.0
2019-Jan-18 02:12S 41°03' E 145°55'0 0.0
2019-Jan-18 02:00S 41°03' E 145°55'0 0.0
2019-Jan-18 01:30S 41°03' E 145°55'0 0.0
2019-Jan-18 00:30S 41°03' E 145°55'0 0.0
2019-Jan-17 23:54S 41°03' E 145°55'0 0.0
2019-Jan-17 23:30S 41°03' E 145°55'0 0.0
2019-Jan-17 23:00S 41°03' E 145°55'0 0.0
2019-Jan-17 22:24S 41°03' E 145°55'0 0.0
2019-Jan-17 22:00S 41°03' E 145°55'0 0.2
2019-Jan-17 20:34S 41°03' E 145°55'0 0.4
2019-Jan-17 20:31S 41°03' E 145°55'3 5.0
2019-Jan-17 20:01S 41°02' E 145°58'611.9
2019-Jan-17 19:28S 40°55' E 145°56'6914.0
2019-Jan-17 14:33S 39°51' E 145°22'115.0
2019-Jan-17 14:28S 39°50' E 145°21'128 2.6
2019-Jan-15 12:35S 38°52' E 142°53'915.6
2019-Jan-15 11:59S 38°48' E 142°42'815.7
2019-Jan-15 11:31S 38°44' E 142°34'61 3.3
2019-Jan-14 17:01S 38°26' E 141°20'5 9.7
2019-Jan-14 16:31S 38°25' E 141°14'8 9.6
2019-Jan-14 15:38S 38°23' E 141°03'210.0
2019-Jan-14 15:27S 38°23' E 141°01'18 9.9
2019-Jan-14 13:38S 38°17' E 140°39'710.0
2019-Jan-14 12:54S 38°15' E 140°31'510.0
2019-Jan-14 12:23S 38°13' E 140°24'  
Track history (hours):
 
Tides and Currents Weather Stations Pressure Air Temp Water Temp Dewpoint Dewpoint Depression Visibility Wind Speed Wind Dir Waves Ship Positions

Seven Seas Mariner

Last reported at 2019-Jan-22 10:30 UTC. Time now 2019-Jan-23 18:25 UTC.
Position S 26°41' E 153°13'.

Length 216 m; draft 7.2 m.

Type: Passenger vessel. MMSI: 311622000.

Date/timePositionNaut miles runAvg speedWind from/ knotsBaromVisibWave heightAir tempDewpointWater temp
2019-Jan-22 10:30S 26°41' E 153°13'712.4
2019-Jan-22 09:57S 26°47' E 153°11'613.9
2019-Jan-22 09:30S 26°53' E 153°10'917.3
2019-Jan-22 09:00S 27°01' E 153°15'816.6
2019-Jan-22 08:30S 27°07' E 153°21'816.9
2019-Jan-22 08:00S 27°15' E 153°18'815.6
2019-Jan-22 07:31S 27°21' E 153°11'3 5.3
2019-Jan-22 07:00S 27°23' E 153°10'0 0.0
2019-Jan-22 06:30S 27°23' E 153°10'0 0.0
2019-Jan-22 06:00S 27°23' E 153°10'0 0.0
2019-Jan-22 05:30S 27°23' E 153°10'0 0.0
2019-Jan-22 05:00S 27°23' E 153°10'0 0.0
2019-Jan-22 04:30S 27°23' E 153°10'0 0.0
2019-Jan-22 04:00S 27°23' E 153°10'0 0.0
2019-Jan-22 03:00S 27°23' E 153°10'0 0.0
2019-Jan-22 02:30S 27°23' E 153°10'0 0.0
2019-Jan-22 02:00S 27°23' E 153°10'0 0.0
2019-Jan-22 01:30S 27°23' E 153°10'0 0.0
2019-Jan-22 01:00S 27°23' E 153°10'0 0.0
2019-Jan-22 00:30S 27°23' E 153°10'0 0.0
2019-Jan-22 00:00S 27°23' E 153°10'0 0.0
2019-Jan-21 23:30S 27°23' E 153°10'0 0.0
2019-Jan-21 23:00S 27°23' E 153°10'0 0.0
2019-Jan-21 22:27S 27°23' E 153°10'0 0.0
2019-Jan-21 21:57S 27°23' E 153°10'0 0.0
2019-Jan-21 21:30S 27°23' E 153°10'0 0.0
2019-Jan-21 21:00S 27°23' E 153°10'0 0.0
2019-Jan-21 20:30S 27°23' E 153°10'0 0.9
2019-Jan-21 20:00S 27°22' E 153°10'5 9.2
2019-Jan-21 19:30S 27°19' E 153°13'815.4
2019-Jan-21 19:00S 27°14' E 153°20'815.5
2019-Jan-21 18:30S 27°07' E 153°20'815.5
2019-Jan-21 18:00S 27°00' E 153°15'816.7
2019-Jan-21 17:30S 26°53' E 153°10'712.9
2019-Jan-21 16:57S 26°46' E 153°12'4 7.6
2019-Jan-21 16:28S 26°46' E 153°16'613.7
2019-Jan-21 16:00S 26°48' E 153°22'612.3
2019-Jan-21 15:30S 26°51' E 153°28'611.5
2019-Jan-21 15:00S 26°54' E 153°34'611.9
2019-Jan-21 14:30S 26°59' E 153°38'612.4
2019-Jan-21 14:00S 27°04' E 153°42'612.3
2019-Jan-21 13:30S 27°09' E 153°45'713.0
2019-Jan-21 13:00S 27°16' E 153°46'814.0
2019-Jan-21 12:27S 27°23' E 153°48'714.4
2019-Jan-21 12:00S 27°30' E 153°49'715.2
2019-Jan-21 11:30S 27°37' E 153°50'915.3
2019-Jan-21 10:57S 27°46' E 153°50'24814.0
2019-Jan-20 17:16S 31°51' E 153°04'415.4
2019-Jan-20 17:00S 31°55' E 153°03'3815.4
2019-Jan-20 14:33S 32°31' E 152°49'315.2
2019-Jan-20 14:21S 32°33' E 152°48'514.8
2019-Jan-20 14:00S 32°38' E 152°44'815.2
2019-Jan-20 13:30S 32°43' E 152°38'815.0
2019-Jan-20 13:00S 32°49' E 152°32'714.9
2019-Jan-20 12:30S 32°54' E 152°26'714.7
2019-Jan-20 12:00S 32°59' E 152°20'815.6
2019-Jan-20 11:30S 33°05' E 152°13'916.9
2019-Jan-20 11:00S 33°11' E 152°06'2917.7
2019-Jan-20 09:23S 33°32' E 151°42'718.0
2019-Jan-20 09:00S 33°37' E 151°37'918.2
2019-Jan-20 08:30S 33°43' E 151°29'917.9
2019-Jan-20 08:00S 33°50' E 151°22'510.6
2019-Jan-20 07:30S 33°51' E 151°15'3 6.3
2019-Jan-20 06:59S 33°52' E 151°12'0 0.4
2019-Jan-20 06:28S 33°52' E 151°11'0 0.0
2019-Jan-20 05:58S 33°52' E 151°11'0 0.0
2019-Jan-20 05:28S 33°52' E 151°11'0 0.0
2019-Jan-20 04:52S 33°52' E 151°11'0 0.0
2019-Jan-20 04:25S 33°52' E 151°11'0 0.0
2019-Jan-20 03:58S 33°52' E 151°11'0 0.0
2019-Jan-20 03:28S 33°52' E 151°11'0 0.0
2019-Jan-20 02:58S 33°52' E 151°11'0 0.0
2019-Jan-20 02:28S 33°52' E 151°11'0 0.0
2019-Jan-20 01:58S 33°52' E 151°11'0 0.0
2019-Jan-20 01:28S 33°52' E 151°11'0 0.0
2019-Jan-20 00:58S 33°52' E 151°11'0 0.0
2019-Jan-20 00:28S 33°52' E 151°11'0 0.0
2019-Jan-19 23:58S 33°52' E 151°11'0 0.0
2019-Jan-19 23:28S 33°52' E 151°11'0 0.0
2019-Jan-19 22:58S 33°52' E 151°11'0 0.0
2019-Jan-19 22:28S 33°52' E 151°11'0 0.0
2019-Jan-19 21:58S 33°52' E 151°11'0 0.0
2019-Jan-19 21:28S 33°52' E 151°11'0 0.0
2019-Jan-19 20:58S 33°52' E 151°11'0 0.0
2019-Jan-19 20:25S 33°52' E 151°11'0 0.0
2019-Jan-19 19:58S 33°52' E 151°11'0 0.0
2019-Jan-19 19:28S 33°52' E 151°11'1 1.0
2019-Jan-19 19:00S 33°52' E 151°12'2 5.1
2019-Jan-19 18:30S 33°51' E 151°15'5 9.8
2019-Jan-19 18:00S 33°51' E 151°21'510.3
2019-Jan-19 17:30S 33°55' E 151°24'612.4
2019-Jan-19 17:00S 34°01' E 151°25'611.7
2019-Jan-19 16:30S 34°07' E 151°25'712.1
2019-Jan-19 15:57S 34°14' E 151°24'612.4
2019-Jan-19 15:29S 34°19' E 151°23'42815.1
2019-Jan-18 11:11S 40°15' E 146°23'315.8
2019-Jan-18 10:58S 40°18' E 146°21'715.8
2019-Jan-18 10:30S 40°25' E 146°17'1015.8
2019-Jan-18 09:52S 40°34' E 146°12'615.9
2019-Jan-18 09:30S 40°39' E 146°10'815.8
2019-Jan-18 09:00S 40°47' E 146°06'815.6
2019-Jan-18 08:30S 40°54' E 146°02'815.7
2019-Jan-18 08:00S 41°01' E 145°58'3 5.8
2019-Jan-18 07:30S 41°03' E 145°55'0 0.0
2019-Jan-18 07:00S 41°03' E 145°55'0 0.0
2019-Jan-18 06:30S 41°03' E 145°55'0 0.0
2019-Jan-18 06:00S 41°03' E 145°55'0 0.0
2019-Jan-18 05:24S 41°03' E 145°55'0 0.0
2019-Jan-18 04:48S 41°03' E 145°55'0 0.0
2019-Jan-18 04:24S 41°03' E 145°55'0 0.0
2019-Jan-18 03:54S 41°03' E 145°55'0 0.0
2019-Jan-18 02:48S 41°03' E 145°55'0 0.0
2019-Jan-18 02:12S 41°03' E 145°55'0 0.0
2019-Jan-18 02:00S 41°03' E 145°55'0 0.0
2019-Jan-18 01:30S 41°03' E 145°55'0 0.0
2019-Jan-18 00:30S 41°03' E 145°55'0 0.0
2019-Jan-17 23:54S 41°03' E 145°55'0 0.0
2019-Jan-17 23:30S 41°03' E 145°55'0 0.0
2019-Jan-17 23:00S 41°03' E 145°55'0 0.0
2019-Jan-17 22:24S 41°03' E 145°55'0 0.0
2019-Jan-17 22:00S 41°03' E 145°55'0 0.2
2019-Jan-17 20:34S 41°03' E 145°55'0 0.4
2019-Jan-17 20:31S 41°03' E 145°55'3 5.0
2019-Jan-17 20:01S 41°02' E 145°58'611.9
2019-Jan-17 19:28S 40°55' E 145°56'6914.0
2019-Jan-17 14:33S 39°51' E 145°22'115.0
2019-Jan-17 14:28S 39°50' E 145°21'128 2.6
2019-Jan-15 12:35S 38°52' E 142°53'915.6
2019-Jan-15 11:59S 38°48' E 142°42'815.7
2019-Jan-15 11:31S 38°44' E 142°34'61 3.3
2019-Jan-14 17:01S 38°26' E 141°20'5 9.7
2019-Jan-14 16:31S 38°25' E 141°14'8 9.6
2019-Jan-14 15:38S 38°23' E 141°03'210.0
2019-Jan-14 15:27S 38°23' E 141°01'18 9.9
2019-Jan-14 13:38S 38°17' E 140°39'710.0
2019-Jan-14 12:54S 38°15' E 140°31'510.0
2019-Jan-14 12:23S 38°13' E 140°24'  

Dump ship's entire track history